Pierceland, Canada
Current Conditions -  °F | °C
As of 11:00 AM on Thursday 30 Oct 2014 (Local Time) from CYOD Reporting Station
Overcast Overcast  
Wind Chill: 24°   Ceiling: 1300
Heat Index: 32°   Visibility: 15mi
Dew Point: 28°   Wind: 9mph
Humidity: 87%   Direction: 110°ESE
Pressure: 30.36"   Gusts: NA
Location:  54.34°N, 109.78°W
Report Text: CYOD 301700Z 11008KT 15SM OVC013 M00/M02 A3036 RMK SC8 SLP310
Loading
Personal Weather Stations






























Interactive Weather Map
Tropical Storm Tracking
New forecast layout! Learn more

10-Day Weather Forecast

Advertisements
Track Severe Weather on mobile